Time;durP1;ratioP1;P1;durP2;ratioP2;P2;SDS_P1;SDS_P2;PMS_P1;PMS_P2;Temp;Humidity;BMP_temperature;BMP_pressure;BME280_temperature;BME280_humidity;BME280_pressure;Samples;Min_cycle;Max_cycle;Signal;HPM_P1;HPM_P2
2021/09/25 00:00:37;;;;;;;18.73;9.10;;;;;;;9.76;99.16;98912.81;4990269;28;20058;-70
2021/09/25 00:03:04;;;;;;;14.43;8.60;;;;;;;9.79;99.20;98917.81;4989527;28;20037;-69
2021/09/25 00:05:35;;;;;;;14.18;8.20;;;;;;;9.78;99.75;98921.56;4985104;28;20027;-70
2021/09/25 00:08:01;;;;;;;17.45;8.95;;;;;;;9.78;100.00;98923.44;5002791;28;20036;-69
2021/09/25 00:10:27;;;;;;;16.10;9.73;;;;;;;9.76;100.00;98923.63;5007606;28;20041;-70
2021/09/25 00:12:53;;;;;;;11.85;7.82;;;;;;;9.73;100.00;98921.31;4984519;28;20080;-70
2021/09/25 00:15:19;;;;;;;11.65;8.18;;;;;;;9.76;100.00;98912.00;4983742;28;20430;-69
2021/09/25 00:17:48;;;;;;;15.07;8.63;;;;;;;9.82;100.00;98914.75;4990765;28;20030;-70
2021/09/25 00:20:16;;;;;;;11.10;7.83;;;;;;;9.88;100.00;98913.97;4974648;28;20030;-70
2021/09/25 00:22:41;;;;;;;14.00;7.60;;;;;;;9.65;100.00;98891.75;4991040;28;20089;-70
2021/09/25 00:25:07;;;;;;;13.60;8.43;;;;;;;9.65;100.00;98894.44;4985181;28;20026;-69
2021/09/25 00:27:33;;;;;;;14.10;8.15;;;;;;;9.92;100.00;98916.28;4991731;28;20030;-70
2021/09/25 00:29:58;;;;;;;15.48;7.38;;;;;;;9.81;100.00;98915.78;4978053;28;20073;-70
2021/09/25 00:32:23;;;;;;;14.05;8.20;;;;;;;9.81;100.00;98910.38;4983945;28;20396;-69
2021/09/25 00:34:49;;;;;;;13.48;8.05;;;;;;;9.79;100.00;98917.81;4991439;28;20476;-69
2021/09/25 00:37:14;;;;;;;14.05;8.00;;;;;;;9.93;100.00;98912.53;4990693;28;20032;-70
2021/09/25 00:39:40;;;;;;;13.23;7.72;;;;;;;9.95;100.00;98908.59;4978177;28;20055;-70
2021/09/25 00:42:06;;;;;;;13.07;6.85;;;;;;;9.94;99.94;98904.22;4993381;28;20101;-70
2021/09/25 00:44:31;;;;;;;10.82;6.72;;;;;;;9.79;98.93;98893.50;4991279;28;20387;-70
2021/09/25 00:46:58;;;;;;;12.55;6.57;;;;;;;9.78;97.96;98910.75;4975165;28;20023;-70
2021/09/25 00:49:24;;;;;;;9.20;5.82;;;;;;;9.64;97.91;98895.47;4993974;28;20039;-70
2021/09/25 00:51:50;;;;;;;10.27;6.63;;;;;;;9.68;98.28;98920.25;4995445;28;20369;-70
2021/09/25 00:54:16;;;;;;;8.60;5.75;;;;;;;9.53;98.53;98928.41;4994343;28;20033;-71
2021/09/25 00:56:47;;;;;;;10.95;7.05;;;;;;;9.46;99.87;98931.06;4994277;28;20495;-69
2021/09/25 00:59:13;;;;;;;10.73;6.93;;;;;;;9.38;100.00;98926.63;4983868;28;20146;-70
2021/09/25 01:01:39;;;;;;;9.35;6.18;;;;;;;9.33;99.52;98920.97;4977349;28;20050;-70
2021/09/25 01:04:05;;;;;;;14.48;7.20;;;;;;;9.16;99.42;98906.03;4978195;28;20455;-70
2021/09/25 01:06:30;;;;;;;11.48;7.53;;;;;;;8.95;99.44;98878.00;4981365;28;20081;-70
2021/09/25 01:08:56;;;;;;;10.18;6.45;;;;;;;9.16;100.00;98917.66;4980513;28;20041;-70
2021/09/25 01:11:22;;;;;;;9.90;7.18;;;;;;;9.09;99.59;98900.56;4990763;28;20030;-70
2021/09/25 01:13:48;;;;;;;12.82;6.78;;;;;;;9.16;99.79;98922.22;4976295;28;20022;-70
2021/09/25 01:16:13;;;;;;;11.15;6.40;;;;;;;9.22;100.00;98916.06;4978058;28;20506;-70
2021/09/25 01:18:38;;;;;;;12.90;7.63;;;;;;;9.16;100.00;98900.63;4999245;28;20565;-70
2021/09/25 01:21:08;;;;;;;12.20;6.35;;;;;;;9.29;99.86;98921.53;4996036;28;20084;-70
2021/09/25 01:23:34;;;;;;;10.40;6.32;;;;;;;9.23;100.00;98912.34;4984835;28;20062;-70
2021/09/25 01:26:00;;;;;;;9.02;6.40;;;;;;;9.18;100.00;98920.19;4982988;28;20022;-70
2021/09/25 01:28:27;;;;;;;9.45;6.20;;;;;;;9.14;99.94;98924.28;4980744;28;20512;-70
2021/09/25 01:30:52;;;;;;;9.02;6.00;;;;;;;9.18;100.00;98921.00;4992843;28;20093;-70
2021/09/25 01:33:30;;;;;;;12.43;6.57;;;;;;;9.14;100.00;98918.88;4994292;28;20034;-69
2021/09/25 01:35:56;;;;;;;9.82;6.13;;;;;;;9.12;100.00;98911.00;4982170;28;20057;-70
2021/09/25 01:38:21;;;;;;;11.52;7.00;;;;;;;9.00;100.00;98891.75;4982831;28;20469;-69
2021/09/25 01:40:47;;;;;;;12.73;7.15;;;;;;;9.01;100.00;98900.66;4987763;28;20031;-68
2021/09/25 01:43:12;;;;;;;11.88;7.57;;;;;;;9.06;100.00;98916.28;4997891;28;20030;-70
2021/09/25 01:45:37;;;;;;;11.13;7.00;;;;;;;8.99;100.00;98905.44;4995233;28;20392;-70
2021/09/25 01:48:03;;;;;;;11.57;7.35;;;;;;;9.04;100.00;98919.22;4978695;28;20031;-69
2021/09/25 01:50:28;;;;;;;10.30;7.22;;;;;;;9.08;100.00;98919.66;4981413;28;20104;-70
2021/09/25 01:52:54;;;;;;;11.00;6.95;;;;;;;8.96;100.00;98895.88;4980349;28;20544;-69
2021/09/25 01:55:19;;;;;;;11.45;7.28;;;;;;;8.98;100.00;98909.97;4990102;28;20041;-69
2021/09/25 01:57:45;;;;;;;14.45;7.03;;;;;;;9.05;100.00;98917.34;4986008;28;20019;-70
2021/09/25 02:00:11;;;;;;;11.20;7.35;;;;;;;8.86;100.00;98919.63;4978356;28;20034;-70
2021/09/25 02:02:37;;;;;;;8.95;6.63;;;;;;;8.83;100.00;98922.69;4994142;28;20034;-70
2021/09/25 02:05:04;;;;;;;11.10;7.10;;;;;;;8.84;100.00;98927.06;4978946;28;20084;-70
2021/09/25 02:07:30;;;;;;;15.18;6.57;;;;;;;8.76;100.00;98927.16;4996721;28;20018;-69
2021/09/25 02:09:55;;;;;;;10.23;6.75;;;;;;;8.73;100.00;98919.47;4986294;28;20053;-70
2021/09/25 02:12:20;;;;;;;11.80;6.60;;;;;;;8.75;100.00;98925.47;4989368;28;20027;-72
2021/09/25 02:14:46;;;;;;;14.27;7.03;;;;;;;8.67;100.00;98925.59;4983232;28;20592;-70
2021/09/25 02:17:12;;;;;;;12.15;7.18;;;;;;;8.54;100.00;98915.47;4981511;28;20539;-69
2021/09/25 02:19:38;;;;;;;8.55;6.07;;;;;;;8.67;100.00;98928.28;4999463;28;20030;-70
2021/09/25 02:22:03;;;;;;;13.65;8.25;;;;;;;8.55;99.56;98936.03;4993337;28;20034;-69
2021/09/25 02:24:28;;;;;;;10.20;6.38;;;;;;;8.44;98.29;98926.56;4982021;28;20030;-70
2021/09/25 02:26:53;;;;;;;8.85;6.32;;;;;;;8.29;98.07;98923.00;4990602;28;20022;-70
2021/09/25 02:29:19;;;;;;;9.27;6.20;;;;;;;8.22;98.50;98919.34;4991776;28;20458;-70
2021/09/25 02:31:44;;;;;;;11.18;6.85;;;;;;;8.29;98.62;98934.59;4976856;28;20452;-69
2021/09/25 02:34:09;;;;;;;10.25;6.93;;;;;;;8.15;99.71;98908.50;4996603;28;20481;-70
2021/09/25 02:36:35;;;;;;;12.10;6.88;;;;;;;8.30;100.00;98928.19;4994134;28;20420;-69
2021/09/25 02:39:01;;;;;;;12.20;7.03;;;;;;;8.27;100.00;98925.03;4993118;28;20049;-69
2021/09/25 02:41:27;;;;;;;12.32;6.53;;;;;;;8.09;99.64;98923.53;4994982;28;20034;-69
2021/09/25 02:43:52;;;;;;;11.48;7.13;;;;;;;8.09;100.00;98920.00;4986708;28;20081;-69
2021/09/25 02:46:18;;;;;;;12.93;7.00;;;;;;;8.23;100.00;98931.81;4995529;28;20034;-70
2021/09/25 02:48:45;;;;;;;11.10;6.97;;;;;;;8.28;100.00;98924.03;4994047;28;20088;-70
2021/09/25 02:51:11;;;;;;;14.20;7.18;;;;;;;8.14;100.00;98901.41;4992611;28;20030;-69
2021/09/25 02:53:36;;;;;;;12.70;7.55;;;;;;;8.10;100.00;98884.78;4993429;28;20053;-70
2021/09/25 02:56:01;;;;;;;10.60;6.88;;;;;;;8.37;100.00;98922.06;4995735;28;20109;-72
2021/09/25 02:58:27;;;;;;;14.77;7.38;;;;;;;8.38;100.00;98918.31;4991113;28;20400;-69
2021/09/25 03:00:52;;;;;;;11.63;7.22;;;;;;;8.50;100.00;98915.00;4991118;28;20415;-69
2021/09/25 03:03:17;;;;;;;11.77;6.90;;;;;;;8.49;100.00;98916.03;4976821;28;20058;-70
2021/09/25 03:05:43;;;;;;;10.20;7.35;;;;;;;8.21;100.00;98886.19;4985870;28;20104;-70
2021/09/25 03:08:08;;;;;;;12.20;7.75;;;;;;;8.22;100.00;98904.00;4981451;28;20115;-69
2021/09/25 03:10:33;;;;;;;17.50;8.05;;;;;;;8.19;100.00;98908.94;4995407;28;20049;-69
2021/09/25 03:12:59;;;;;;;11.35;7.32;;;;;;;8.26;100.00;98912.59;4980795;28;20101;-69
2021/09/25 03:15:24;;;;;;;10.52;6.15;;;;;;;8.20;100.00;98919.56;4978251;28;20026;-69
2021/09/25 03:17:49;;;;;;;8.85;5.90;;;;;;;8.13;100.00;98921.31;4993754;28;20032;-69
2021/09/25 03:20:14;;;;;;;13.60;7.00;;;;;;;8.04;100.00;98917.88;4983666;28;20022;-69
2021/09/25 03:22:40;;;;;;;13.60;7.65;;;;;;;7.92;100.00;98902.34;4975363;28;20106;-69
2021/09/25 03:25:09;;;;;;;17.40;6.97;;;;;;;8.10;100.00;98921.69;4991290;28;20562;-70
2021/09/25 03:27:38;;;;;;;;;;;;;;;8.08;100.00;98918.34;5001380;28;20026;-70
2021/09/25 03:30:05;;;;;;;9.55;6.07;;;;;;;8.00;100.00;98910.34;4987488;28;20372;-70
2021/09/25 03:32:30;;;;;;;15.20;7.30;;;;;;;7.89;100.00;98893.59;4985042;28;20066;-70
2021/09/25 03:34:56;;;;;;;13.00;6.78;;;;;;;7.95;100.00;98900.09;4979913;28;20062;-69
2021/09/25 03:37:21;;;;;;;10.35;6.53;;;;;;;7.85;100.00;98892.28;4991916;28;20460;-70
2021/09/25 03:39:46;;;;;;;9.55;6.78;;;;;;;7.72;100.00;98880.47;4988836;28;20035;-69
2021/09/25 03:42:11;;;;;;;13.25;7.00;;;;;;;7.77;100.00;98889.66;4981157;28;20027;-69
2021/09/25 03:44:37;;;;;;;11.13;6.75;;;;;;;7.75;100.00;98893.56;4996624;28;20498;-69
2021/09/25 03:47:02;;;;;;;11.18;7.18;;;;;;;7.80;100.00;98892.00;4994427;28;20030;-69
2021/09/25 03:49:27;;;;;;;10.82;6.75;;;;;;;7.79;100.00;98884.94;4995363;28;20045;-68
2021/09/25 03:51:54;;;;;;;9.82;6.57;;;;;;;7.86;100.00;98895.84;5001702;28;20093;-68
2021/09/25 03:54:20;;;;;;;11.88;6.65;;;;;;;7.78;100.00;98895.88;5011726;28;20026;-69
2021/09/25 03:56:46;;;;;;;9.80;6.53;;;;;;;7.78;100.00;98898.59;5004192;28;20042;-69
2021/09/25 03:59:11;;;;;;;9.98;6.28;;;;;;;7.81;100.00;98901.75;4989397;28;20034;-68
2021/09/25 04:01:36;;;;;;;11.75;7.20;;;;;;;7.80;100.00;98892.00;5002478;28;20034;-69
2021/09/25 04:04:02;;;;;;;11.80;6.72;;;;;;;7.94;100.00;98901.13;4991911;28;20057;-69
2021/09/25 04:06:27;;;;;;;10.55;6.75;;;;;;;8.00;100.00;98899.56;4998313;28;20022;-69
2021/09/25 04:08:54;;;;;;;10.38;6.22;;;;;;;7.92;100.00;98896.94;5008775;28;20041;-69
2021/09/25 04:11:19;;;;;;;10.82;6.45;;;;;;;7.84;100.00;98900.56;4998353;28;20030;-69
2021/09/25 04:13:45;;;;;;;10.63;6.82;;;;;;;7.80;100.00;98901.94;4982549;28;20499;-69
2021/09/25 04:16:10;;;;;;;16.23;7.57;;;;;;;7.73;100.00;98903.69;5004282;28;20033;-68
2021/09/25 04:18:35;;;;;;;15.57;8.18;;;;;;;7.72;100.00;98908.22;5008737;28;20121;-71
2021/09/25 04:21:01;;;;;;;15.27;8.88;;;;;;;7.72;100.00;98910.09;5016010;28;20030;-69
2021/09/25 04:23:26;;;;;;;16.52;8.65;;;;;;;7.64;100.00;98906.44;5000072;28;20041;-69
2021/09/25 04:25:51;;;;;;;16.55;8.98;;;;;;;7.62;100.00;98900.44;5012323;28;20026;-75
2021/09/25 04:28:33;;;;;;;14.98;8.63;;;;;;;7.65;100.00;98905.44;5017456;28;20031;-75
2021/09/25 04:30:58;;;;;;;21.40;8.70;;;;;;;7.41;100.00;98894.88;5004536;28;20114;-72
2021/09/25 04:33:23;;;;;;;14.05;8.57;;;;;;;7.51;100.00;98906.22;5006607;28;20030;-74
2021/09/25 04:35:49;;;;;;;12.93;8.18;;;;;;;7.35;100.00;98892.91;5014382;28;20503;-74
2021/09/25 04:38:14;;;;;;;14.82;8.15;;;;;;;7.66;100.00;98904.41;5016968;28;20086;-73
2021/09/25 04:40:40;;;;;;;15.32;9.23;;;;;;;7.65;100.00;98883.03;5013898;28;20038;-73
2021/09/25 04:43:05;;;;;;;16.65;9.80;;;;;;;7.90;100.00;98892.56;5011732;28;20149;-73
2021/09/25 04:45:30;;;;;;;13.70;8.88;;;;;;;7.86;100.00;98885.06;5013187;28;20027;-74
2021/09/25 04:47:56;;;;;;;16.88;8.95;;;;;;;8.04;100.00;98900.84;5000112;28;20037;-75
2021/09/25 04:50:24;;;;;;;15.27;8.25;;;;;;;7.95;100.00;98894.72;5016075;28;20030;-74
2021/09/25 04:52:49;;;;;;;12.95;7.82;;;;;;;7.78;100.00;98887.81;5016828;28;20026;-73
2021/09/25 04:55:15;;;;;;;14.90;9.50;;;;;;;7.77;100.00;98903.13;5016157;28;20033;-74
2021/09/25 04:57:40;;;;;;;15.90;9.07;;;;;;;7.59;100.00;98871.16;5015803;28;20078;-74
2021/09/25 05:00:07;;;;;;;16.73;8.95;;;;;;;7.61;100.00;98879.06;5015365;28;20032;-73
2021/09/25 05:02:33;;;;;;;13.82;8.10;;;;;;;7.74;100.00;98905.38;5018515;28;20061;-74
2021/09/25 05:04:58;;;;;;;14.98;8.77;;;;;;;7.75;100.00;98909.72;5008118;28;20031;-72
2021/09/25 05:07:24;;;;;;;17.77;9.68;;;;;;;7.71;100.00;98911.97;5013121;28;20029;-72
2021/09/25 05:09:49;;;;;;;17.23;9.73;;;;;;;7.51;100.00;98900.00;5009866;28;20032;-74
2021/09/25 05:12:14;;;;;;;17.40;9.20;;;;;;;7.54;100.00;98919.31;5000085;28;20113;-74
2021/09/25 05:14:40;;;;;;;15.63;10.25;;;;;;;7.39;100.00;98899.63;5010662;28;20044;-74
2021/09/25 05:17:06;;;;;;;15.82;9.55;;;;;;;7.34;100.00;98907.41;5014881;28;20403;-66
2021/09/25 05:19:32;;;;;;;13.82;8.43;;;;;;;7.48;100.00;98922.75;5004205;28;20082;-68
2021/09/25 05:21:58;;;;;;;13.88;8.55;;;;;;;7.45;100.00;98923.13;5004443;28;20433;-68
2021/09/25 05:24:23;;;;;;;13.30;8.63;;;;;;;7.42;100.00;98924.31;4997381;28;20050;-66
2021/09/25 05:26:49;;;;;;;12.30;7.60;;;;;;;7.36;100.00;98921.50;4995968;28;20130;-70
2021/09/25 05:29:16;;;;;;;15.00;8.32;;;;;;;7.49;100.00;98919.03;5002798;28;20031;-72
2021/09/25 05:31:41;;;;;;;14.70;8.98;;;;;;;7.78;100.00;98933.59;5016983;28;20026;-68
2021/09/25 05:34:07;;;;;;;13.68;8.38;;;;;;;7.83;100.00;98937.44;5009382;28;20037;-71
2021/09/25 05:36:32;;;;;;;14.00;8.68;;;;;;;7.91;100.00;98944.59;5008602;28;20342;-70
2021/09/25 05:38:57;;;;;;;13.52;7.57;;;;;;;8.07;100.00;98939.06;5013919;28;20038;-68
2021/09/25 05:41:22;;;;;;;18.08;9.65;;;;;;;8.28;100.00;98937.50;5013533;28;20069;-77
2021/09/25 05:43:51;;;;;;;13.82;7.93;;;;;;;8.58;100.00;98937.53;5015718;28;20028;-67
2021/09/25 05:46:17;;;;;;;10.27;6.75;;;;;;;9.84;97.18;98926.19;5010032;28;20027;-67
2021/09/25 05:48:42;;;;;;;11.10;5.75;;;;;;;11.81;82.66;98917.44;5000581;28;20543;-68
2021/09/25 05:51:10;;;;;;;8.27;5.68;;;;;;;13.70;74.70;98921.00;4985233;28;20026;-68
2021/09/25 05:53:37;;;;;;;8.13;5.43;;;;;;;14.79;65.70;98915.97;4983225;28;20034;-68
2021/09/25 05:56:02;;;;;;;7.72;5.28;;;;;;;16.29;62.54;98916.88;4986547;28;20121;-67
2021/09/25 05:58:28;;;;;;;8.07;4.90;;;;;;;17.03;58.91;98899.94;4988107;28;20492;-67
2021/09/25 06:00:53;;;;;;;7.35;5.20;;;;;;;18.00;56.27;98904.47;4993089;28;20030;-67
2021/09/25 06:03:18;;;;;;;10.20;4.70;;;;;;;18.11;55.24;98908.19;4993445;28;20030;-68
2021/09/25 06:05:43;;;;;;;8.73;5.25;;;;;;;18.13;52.83;98904.13;4993117;28;20121;-70
2021/09/25 06:08:09;;;;;;;8.00;5.50;;;;;;;18.51;49.84;98888.75;4995718;28;20030;-67
2021/09/25 06:10:34;;;;;;;8.68;5.90;;;;;;;18.80;50.74;98899.59;4993215;28;20030;-68
2021/09/25 06:13:00;;;;;;;7.78;5.60;;;;;;;19.17;48.91;98907.16;4988336;28;20042;-68
2021/09/25 06:15:25;;;;;;;7.38;4.97;;;;;;;19.60;47.48;98900.78;4983963;28;20109;-67
2021/09/25 06:17:50;;;;;;;8.23;5.55;;;;;;;20.09;46.64;98894.31;4996677;28;20065;-67
2021/09/25 06:20:16;;;;;;;10.38;5.63;;;;;;;20.48;45.67;98896.78;4987531;28;20026;-67
2021/09/25 06:22:42;;;;;;;8.13;5.53;;;;;;;20.54;46.06;98896.59;4988366;28;20029;-68
2021/09/25 06:25:08;;;;;;;10.02;5.28;;;;;;;20.90;45.77;98899.50;4981878;28;20400;-69
2021/09/25 06:27:34;;;;;;;9.07;5.47;;;;;;;21.33;45.33;98889.22;4983915;28;20029;-68
2021/09/25 06:29:59;;;;;;;11.38;5.30;;;;;;;21.79;44.79;98891.22;4982204;28;20037;-68
2021/09/25 06:32:25;;;;;;;11.07;6.00;;;;;;;22.50;43.42;98869.13;4985256;28;20030;-68
2021/09/25 06:34:51;;;;;;;10.85;6.00;;;;;;;22.74;42.33;98885.03;4985311;28;20038;-72
2021/09/25 06:37:17;;;;;;;8.70;5.38;;;;;;;22.80;41.82;98875.66;4993582;28;20483;-73
2021/09/25 06:39:42;;;;;;;10.23;5.68;;;;;;;22.21;41.46;98830.31;4990510;28;20072;-72
2021/09/25 06:42:07;;;;;;;9.68;5.95;;;;;;;23.27;38.68;98855.03;4994139;28;20395;-72
2021/09/25 06:44:33;;;;;;;10.07;5.53;;;;;;;23.36;38.81;98869.88;4990882;28;20376;-73
2021/09/25 06:46:58;;;;;;;10.30;5.70;;;;;;;23.61;39.27;98877.16;4985146;28;20376;-72
2021/09/25 06:49:24;;;;;;;12.82;8.13;;;;;;;23.35;38.67;98889.50;4974154;28;20058;-71
2021/09/25 06:51:50;;;;;;;13.02;8.25;;;;;;;23.78;37.71;98865.72;4990901;28;20035;-72
2021/09/25 06:54:16;;;;;;;11.05;6.70;;;;;;;23.90;36.58;98864.56;4994143;28;20059;-71
2021/09/25 06:56:42;;;;;;;12.60;6.97;;;;;;;23.28;38.36;98876.00;4992607;28;20018;-70
2021/09/25 06:59:07;;;;;;;12.68;6.75;;;;;;;23.15;39.26;98891.25;4993102;28;20113;-71
2021/09/25 07:01:32;;;;;;;8.02;5.47;;;;;;;23.04;39.34;98889.66;4990185;28;20690;-71
2021/09/25 07:03:58;;;;;;;10.75;5.57;;;;;;;24.84;36.84;98889.88;4991493;28;20034;-71
2021/09/25 07:06:23;;;;;;;6.80;5.13;;;;;;;24.84;37.06;98883.53;4979723;28;20034;-72
2021/09/25 07:08:48;;;;;;;10.48;5.72;;;;;;;25.96;35.39;98893.06;4993134;28;20466;-69
2021/09/25 07:11:14;;;;;;;8.52;5.53;;;;;;;25.94;35.26;98892.53;4980904;28;20033;-70
2021/09/25 07:13:39;;;;;;;10.68;5.65;;;;;;;25.13;37.03;98884.25;4973974;28;20105;-73
2021/09/25 07:16:04;;;;;;;6.85;5.03;;;;;;;24.98;37.40;98886.41;4987678;28;20022;-74
2021/09/25 07:18:30;;;;;;;7.50;5.65;;;;;;;25.98;36.96;98887.19;4993903;28;20025;-76
2021/09/25 07:20:55;;;;;;;7.25;5.00;;;;;;;26.15;36.44;98886.66;5008455;28;20492;-74
2021/09/25 07:23:20;;;;;;;5.95;4.75;;;;;;;25.90;36.94;98902.56;4992477;28;20022;-74
2021/09/25 07:25:46;;;;;;;6.60;4.80;;;;;;;25.88;37.71;98887.38;4991847;28;20040;-75
2021/09/25 07:28:11;;;;;;;8.93;4.25;;;;;;;26.16;36.52;98893.81;4978805;28;20022;-78
2021/09/25 07:30:38;;;;;;;8.40;5.28;;;;;;;25.63;37.89;98875.53;4991577;28;20054;-70
2021/09/25 07:33:07;;;;;;;6.90;4.70;;;;;;;26.88;36.91;98898.88;4992284;28;20404;-70
2021/09/25 07:35:34;;;;;;;8.77;5.43;;;;;;;27.56;35.48;98907.44;4990810;28;20034;-70
2021/09/25 07:38:04;;;;;;;7.30;4.60;;;;;;;27.76;35.42;98916.13;4988987;28;20046;-75
2021/09/25 07:40:30;;;;;;;8.90;5.30;;;;;;;27.45;35.74;98917.97;4992183;28;20030;-79
2021/09/25 07:42:55;;;;;;;10.93;4.78;;;;;;;28.11;35.00;98910.88;4989249;28;20052;-77
2021/09/25 07:45:21;;;;;;;7.10;4.60;;;;;;;28.35;34.47;98906.94;4972627;28;20394;-75
2021/09/25 07:47:46;;;;;;;5.25;4.28;;;;;;;28.38;34.86;98912.69;4975145;28;20033;-75
2021/09/25 07:50:12;;;;;;;6.70;4.70;;;;;;;28.22;34.93;98899.47;4983474;28;20442;-76
2021/09/25 07:52:41;;;;;;;6.18;4.30;;;;;;;28.60;35.15;98908.25;4984885;28;20060;-75
2021/09/25 07:55:07;;;;;;;5.90;4.22;;;;;;;30.48;32.56;98899.97;4991657;28;20392;-75
2021/09/25 07:57:33;;;;;;;6.20;3.90;;;;;;;30.74;31.72;98883.94;4991665;28;20045;-76
2021/09/25 07:59:58;;;;;;;7.28;4.55;;;;;;;29.58;32.78;98892.31;4988770;28;20033;-73
2021/09/25 08:02:23;;;;;;;8.68;4.28;;;;;;;30.25;32.08;98889.03;5000681;28;20058;-73
2021/09/25 08:04:48;;;;;;;8.13;4.30;;;;;;;30.55;31.74;98903.09;4973067;28;20033;-69
2021/09/25 08:07:14;;;;;;;4.93;3.90;;;;;;;30.06;32.15;98905.28;4974675;28;20504;-70
2021/09/25 08:09:39;;;;;;;5.70;3.83;;;;;;;30.22;32.11;98906.41;4979469;28;20035;-75
2021/09/25 08:12:05;;;;;;;4.80;3.25;;;;;;;31.06;30.65;98912.41;4976211;28;20500;-71
2021/09/25 08:14:30;;;;;;;6.43;4.05;;;;;;;31.07;30.72;98910.44;4989524;28;20126;-74
2021/09/25 08:16:55;;;;;;;4.72;4.00;;;;;;;30.90;30.83;98902.97;4992674;28;20476;-74
2021/09/25 08:19:21;;;;;;;4.68;3.58;;;;;;;31.87;29.75;98907.63;4992492;28;20025;-74
2021/09/25 08:21:46;;;;;;;5.47;3.83;;;;;;;31.11;30.57;98903.84;4992498;28;20122;-74
2021/09/25 08:24:11;;;;;;;6.72;4.43;;;;;;;30.20;31.35;98875.22;4988590;28;20026;-72
2021/09/25 08:26:37;;;;;;;7.03;3.65;;;;;;;31.55;29.36;98886.81;4992108;28;20519;-73
2021/09/25 08:29:04;;;;;;;5.70;3.78;;;;;;;30.80;31.24;98904.94;4986467;28;20046;-73
2021/09/25 08:31:29;;;;;;;5.13;4.07;;;;;;;30.60;31.27;98900.09;5001911;28;20026;-74
2021/09/25 08:33:54;;;;;;;5.95;3.92;;;;;;;31.57;30.30;98899.31;4990728;28;20161;-74
2021/09/25 08:36:20;;;;;;;4.90;4.00;;;;;;;31.35;30.10;98885.59;4990025;28;20044;-75
2021/09/25 08:38:45;;;;;;;4.10;3.40;;;;;;;32.08;29.79;98874.84;4989811;28;20062;-73
2021/09/25 08:41:10;;;;;;;5.95;4.28;;;;;;;31.79;30.44;98902.91;4989481;28;20031;-76
2021/09/25 08:43:36;;;;;;;4.25;3.53;;;;;;;32.33;29.26;98900.09;4989839;28;20030;-73
2021/09/25 08:46:04;;;;;;;4.75;3.83;;;;;;;31.51;29.91;98892.25;4978856;28;20026;-74
2021/09/25 08:48:32;;;;;;;4.55;3.67;;;;;;;32.52;28.80;98894.81;4990441;28;20026;-74
2021/09/25 08:50:58;;;;;;;6.82;3.50;;;;;;;33.26;27.75;98888.47;4983348;28;20027;-75
2021/09/25 08:53:23;;;;;;;5.90;3.75;;;;;;;33.45;27.32;98879.41;4988440;28;20049;-74
2021/09/25 08:55:49;;;;;;;4.70;3.35;;;;;;;33.13;27.63;98890.44;4985197;28;20039;-75
2021/09/25 08:58:14;;;;;;;3.53;3.03;;;;;;;33.22;27.54;98876.28;4991546;28;20189;-71
2021/09/25 09:00:43;;;;;;;6.30;3.20;;;;;;;33.87;27.58;98884.69;4983623;28;20065;-72
2021/09/25 09:03:21;;;;;;;3.92;2.70;;;;;;;34.97;25.25;98886.06;4991797;28;20034;-71
2021/09/25 09:05:47;;;;;;;3.67;2.87;;;;;;;33.03;28.36;98893.72;4990853;28;20054;-71
2021/09/25 09:08:14;;;;;;;4.93;3.50;;;;;;;33.60;27.18;98887.94;4978434;28;20034;-70
2021/09/25 09:10:39;;;;;;;4.53;2.85;;;;;;;32.65;28.74;98883.66;4995226;28;20053;-71
2021/09/25 09:13:05;;;;;;;4.50;3.10;;;;;;;33.29;26.98;98884.94;4995597;28;20464;-69
2021/09/25 09:15:38;;;;;;;3.20;2.70;;;;;;;33.75;26.58;98872.34;4994750;28;20480;-71
2021/09/25 09:18:14;;;;;;;4.95;3.20;;;;;;;32.85;27.83;98870.69;4977833;28;20122;-70
2021/09/25 09:20:40;;;;;;;4.32;2.67;;;;;;;33.55;28.12;98870.53;4984597;28;20038;-71
2021/09/25 09:23:16;;;;;;;3.63;2.80;;;;;;;32.68;28.76;98871.75;4979987;28;20072;-73
2021/09/25 09:25:42;;;;;;;5.00;3.10;;;;;;;34.23;27.29;98852.84;4987297;28;20041;-70
2021/09/25 09:28:25;;;;;;;4.95;2.90;;;;;;;34.81;26.62;98857.97;4981649;28;20492;-71
2021/09/25 09:30:53;;;;;;;4.20;2.53;;;;;;;35.18;26.20;98855.66;4991040;28;20018;-70
2021/09/25 09:33:47;;;;;;;3.77;2.67;;;;;;;35.02;26.21;98855.69;4987250;28;20108;-71
2021/09/25 09:36:25;;;;;;;6.85;2.72;;;;;;;35.98;25.69;98856.22;4985102;28;20104;-71
2021/09/25 09:38:54;;;;;;;3.17;2.53;;;;;;;35.69;24.75;98860.44;4986749;28;20405;-71
2021/09/25 09:41:22;;;;;;;6.47;2.83;;;;;;;35.07;25.83;98858.25;4993644;28;20065;-72
2021/09/25 09:43:48;;;;;;;3.00;2.53;;;;;;;36.25;24.01;98851.53;4994744;28;20030;-72
2021/09/25 09:46:14;;;;;;;3.15;2.45;;;;;;;36.43;23.42;98857.47;4987285;28;20109;-71
2021/09/25 09:48:40;;;;;;;4.82;2.70;;;;;;;34.96;25.33;98857.16;4992831;28;20165;-72
2021/09/25 09:51:06;;;;;;;3.78;2.20;;;;;;;35.22;25.28;98855.78;4983054;28;20377;-71
2021/09/25 09:53:45;;;;;;;5.07;2.40;;;;;;;34.12;27.91;98835.72;4994962;28;20085;-72
2021/09/25 09:56:22;;;;;;;3.53;2.78;;;;;;;34.52;27.19;98851.59;4986340;28;20488;-69
2021/09/25 09:59:04;;;;;;;2.97;2.35;;;;;;;34.86;26.80;98846.47;4989080;28;20035;-71
2021/09/25 10:01:30;;;;;;;3.45;2.40;;;;;;;34.81;27.33;98846.72;4989711;28;20057;-72
2021/09/25 10:03:58;;;;;;;4.22;2.60;;;;;;;34.77;26.52;98848.63;4992579;28;20026;-70
2021/09/25 10:06:23;;;;;;;5.28;2.90;;;;;;;34.18;27.68;98845.50;4987731;28;20125;-71
2021/09/25 10:08:49;;;;;;;4.00;2.85;;;;;;;33.41;28.60;98837.25;4990397;28;20556;-68
2021/09/25 10:11:15;;;;;;;2.55;2.13;;;;;;;33.38;28.61;98847.19;4988270;28;20481;-71
2021/09/25 10:13:43;;;;;;;4.07;2.50;;;;;;;34.33;27.00;98845.91;4987026;28;20022;-68
2021/09/25 10:16:10;;;;;;;4.07;2.72;;;;;;;34.84;26.50;98837.56;4988359;28;20054;-68
2021/09/25 10:18:37;;;;;;;3.38;2.65;;;;;;;35.17;26.54;98834.38;4990579;28;20034;-69
2021/09/25 10:21:04;;;;;;;3.00;2.70;;;;;;;35.24;26.14;98839.31;4983944;28;20053;-70
2021/09/25 10:23:32;;;;;;;5.03;2.50;;;;;;;36.09;24.92;98823.47;4997995;28;20038;-70
2021/09/25 10:25:58;;;;;;;3.10;2.30;;;;;;;36.06;25.83;98831.81;4988889;28;20743;-69
2021/09/25 10:28:29;;;;;;;2.83;2.17;;;;;;;36.21;25.82;98836.56;4981914;28;20038;-69
2021/09/25 10:30:55;;;;;;;3.05;2.50;;;;;;;35.55;25.91;98822.34;4986877;28;20034;-69
2021/09/25 10:33:24;;;;;;;4.80;3.00;;;;;;;35.03;26.08;98829.22;4989591;28;20034;-69
2021/09/25 10:35:51;;;;;;;2.78;2.50;;;;;;;34.50;27.40;98827.84;4986609;28;20033;-69
2021/09/25 10:38:40;;;;;;;2.63;2.33;;;;;;;35.24;26.00;98828.06;4975495;28;20566;-69
2021/09/25 10:41:15;;;;;;;4.18;2.78;;;;;;;36.11;25.21;98829.53;4989231;28;20054;-69
2021/09/25 10:43:44;;;;;;;4.07;2.55;;;;;;;35.44;26.49;98821.28;4987187;28;20034;-69
2021/09/25 10:46:12;;;;;;;3.38;2.95;;;;;;;35.34;26.06;98800.19;4986883;28;20026;-69
2021/09/25 10:48:50;;;;;;;4.45;3.10;;;;;;;34.08;27.34;98822.75;4988156;28;20445;-69
2021/09/25 10:51:16;;;;;;;;;;;;;;;34.94;27.38;98817.31;4986599;28;20845;-69
2021/09/25 10:53:44;;;;;;;3.05;2.50;;;;;;;35.77;27.05;98812.38;4987758;28;19922;-71
2021/09/25 10:56:23;;;;;;;5.07;2.97;;;;;;;34.49;27.87;98815.81;4986679;28;20023;-70
2021/09/25 10:59:06;;;;;;;3.60;2.40;;;;;;;35.72;27.55;98814.66;4987083;28;20045;-70
2021/09/25 11:01:33;;;;;;;3.45;2.30;;;;;;;36.36;26.69;98815.88;4979795;28;20027;-69
2021/09/25 11:04:07;;;;;;;3.55;2.67;;;;;;;36.56;25.48;98808.22;4983889;28;20034;-70
2021/09/25 11:06:48;;;;;;;2.60;2.40;;;;;;;35.72;26.76;98807.03;4989100;28;20031;-70
2021/09/25 11:09:28;;;;;;;3.85;2.38;;;;;;;36.57;26.35;98800.56;4989755;28;20057;-71
2021/09/25 11:12:12;;;;;;;7.00;2.90;;;;;;;36.75;25.27;98792.41;4986150;28;20042;-71
2021/09/25 11:14:54;;;;;;;3.80;2.70;;;;;;;36.80;25.15;98790.06;4989544;28;20034;-71
2021/09/25 11:17:19;;;;;;;4.75;2.88;;;;;;;37.18;24.11;98788.25;4987428;28;20022;-71
2021/09/25 11:19:59;;;;;;;2.90;2.20;;;;;;;34.62;27.42;98789.28;4987681;28;20046;-69
2021/09/25 11:22:28;;;;;;;3.92;2.33;;;;;;;34.50;28.31;98785.72;4987504;28;20297;-70
2021/09/25 11:24:56;;;;;;;4.03;2.60;;;;;;;35.24;27.17;98783.06;4989832;28;20477;-70
2021/09/25 11:27:37;;;;;;;3.55;2.75;;;;;;;36.26;26.02;98782.69;4987383;28;20018;-70